createdAt,value
2023-04-16T00:02:05.006Z,101809.25
2023-04-16T00:04:32.136Z,101805.06
2023-04-16T00:06:58.997Z,101814.50
2023-04-16T00:09:26.747Z,101816.31
2023-04-16T00:11:53.813Z,101816.41
2023-04-16T00:14:20.730Z,101812.88
2023-04-16T00:16:47.519Z,101818.03
2023-04-16T00:19:14.433Z,101816.38
2023-04-16T00:21:41.869Z,101817.28
2023-04-16T00:24:08.815Z,101813.84
2023-04-16T00:26:36.246Z,101807.00
2023-04-16T00:29:03.619Z,101813.09
2023-04-16T00:31:31.959Z,101813.09
2023-04-16T00:33:59.388Z,101819.22
2023-04-16T00:36:27.988Z,101820.88
2023-04-16T00:38:56.466Z,101821.69
2023-04-16T00:41:24.004Z,101816.50
2023-04-16T00:43:51.733Z,101823.41
2023-04-16T00:46:25.998Z,101814.69
2023-04-16T00:48:54.251Z,101818.22
2023-04-16T00:51:22.049Z,101814.69
2023-04-16T00:53:49.835Z,101812.97
2023-04-16T00:56:18.272Z,101824.22
2023-04-16T00:58:45.352Z,101821.66
2023-04-16T01:01:14.441Z,101817.38
2023-04-16T01:03:46.797Z,101818.13
2023-04-16T01:06:14.815Z,101820.59
2023-04-16T01:08:42.048Z,101820.69
2023-04-16T01:11:11.293Z,101825.00
2023-04-16T01:13:39.728Z,101823.31
2023-04-16T01:16:10.002Z,101828.56
2023-04-16T01:18:38.039Z,101833.72
2023-04-16T01:21:06.863Z,101836.34
2023-04-16T01:23:34.515Z,101835.47
2023-04-16T01:26:03.621Z,101839.91
2023-04-16T01:28:30.318Z,101832.91
2023-04-16T01:30:57.924Z,101840.75
2023-04-16T01:33:27.086Z,101840.63
2023-04-16T01:35:54.350Z,101838.88
2023-04-16T01:38:21.608Z,101837.22
2023-04-16T01:40:48.370Z,101844.91
2023-04-16T01:43:15.321Z,101844.00
2023-04-16T01:45:42.964Z,101840.63
2023-04-16T01:48:12.107Z,101840.63
2023-04-16T01:50:39.018Z,101839.72
2023-04-16T01:53:06.135Z,101840.59
2023-04-16T01:55:34.400Z,101840.63
2023-04-16T01:58:01.908Z,101844.03
2023-04-16T02:00:28.820Z,101840.53
2023-04-16T02:02:56.356Z,101838.78
2023-04-16T02:05:23.860Z,101833.63
2023-04-16T02:07:50.953Z,101835.38
2023-04-16T02:10:17.566Z,101829.28
2023-04-16T02:12:44.821Z,101833.75
2023-04-16T02:15:12.032Z,101836.34
2023-04-16T02:17:39.280Z,101840.69
2023-04-16T02:20:08.260Z,101841.47
2023-04-16T02:22:35.665Z,101832.00
2023-04-16T02:25:02.606Z,101838.13
2023-04-16T02:27:29.749Z,101845.94
2023-04-16T02:29:57.227Z,101836.34
2023-04-16T02:32:24.721Z,101842.41
2023-04-16T02:34:52.130Z,101839.09
2023-04-16T02:37:18.957Z,101844.19
2023-04-16T02:39:47.512Z,101841.47
2023-04-16T02:42:14.462Z,101840.53
2023-04-16T02:44:41.579Z,101842.25
2023-04-16T02:47:08.730Z,101845.69
2023-04-16T02:49:36.118Z,101843.09
2023-04-16T02:52:03.398Z,101850.94
2023-04-16T02:54:30.249Z,101841.44
2023-04-16T02:56:57.564Z,101840.50
2023-04-16T02:59:24.353Z,101847.28
2023-04-16T03:01:51.896Z,101850.81
2023-04-16T03:04:19.111Z,101847.41
2023-04-16T03:06:46.734Z,101845.59
2023-04-16T03:09:13.802Z,101848.25
2023-04-16T03:11:40.680Z,101843.88
2023-04-16T03:14:07.717Z,101849.09
2023-04-16T03:16:34.975Z,101852.66
2023-04-16T03:19:02.169Z,101850.81
2023-04-16T03:21:29.037Z,101852.72
2023-04-16T03:23:56.096Z,101852.63
2023-04-16T03:26:23.535Z,101854.34
2023-04-16T03:28:50.736Z,101850.94
2023-04-16T03:31:17.815Z,101862.25
2023-04-16T03:33:44.656Z,101862.25
2023-04-16T03:36:12.230Z,101861.47
2023-04-16T03:38:39.111Z,101858.78
2023-04-16T03:41:06.320Z,101857.97
2023-04-16T03:43:33.598Z,101858.03
2023-04-16T03:46:00.644Z,101858.03
2023-04-16T03:48:27.872Z,101857.16
2023-04-16T03:50:54.578Z,101858.91
2023-04-16T03:53:21.831Z,101851.94
2023-04-16T03:55:51.989Z,101857.16
2023-04-16T03:58:19.581Z,101859.78
2023-04-16T04:00:46.492Z,101858.13
2023-04-16T04:03:17.143Z,101856.34
2023-04-16T04:05:44.350Z,101861.59
2023-04-16T04:08:11.795Z,101863.41
2023-04-16T04:10:38.579Z,101866.81
2023-04-16T04:13:06.562Z,101868.63
2023-04-16T04:15:33.505Z,101866.94
2023-04-16T04:18:00.605Z,101879.03
2023-04-16T04:20:27.917Z,101874.66
2023-04-16T04:22:54.807Z,101871.09
2023-04-16T04:25:21.642Z,101871.97
2023-04-16T04:27:48.345Z,101876.41
2023-04-16T04:30:15.744Z,101870.28
2023-04-16T04:32:42.898Z,101882.38
2023-04-16T04:35:09.997Z,101885.97
2023-04-16T04:37:36.843Z,101878.94
2023-04-16T04:40:03.775Z,101882.38
2023-04-16T04:42:30.937Z,101880.72
2023-04-16T04:44:58.115Z,101885.91
2023-04-16T04:47:25.588Z,101886.75
2023-04-16T04:49:53.904Z,101885.03
2023-04-16T04:52:20.843Z,101891.03
2023-04-16T04:54:47.980Z,101896.25
2023-04-16T04:57:14.869Z,101903.16
2023-04-16T04:59:41.953Z,101897.97
2023-04-16T05:02:08.739Z,101899.78
2023-04-16T05:04:35.496Z,101896.25
2023-04-16T05:07:02.715Z,101895.34
2023-04-16T05:09:29.609Z,101896.25
2023-04-16T05:11:57.590Z,101903.22
2023-04-16T05:14:24.768Z,101911.13
2023-04-16T05:16:52.026Z,101908.53
2023-04-16T05:19:19.266Z,101906.78
2023-04-16T05:21:46.960Z,101915.44
2023-04-16T05:24:15.080Z,101920.72
2023-04-16T05:26:42.345Z,101926.78
2023-04-16T05:29:09.501Z,101918.16
2023-04-16T05:31:36.577Z,101922.50
2023-04-16T05:34:03.283Z,101927.72
2023-04-16T05:36:30.653Z,101930.25
2023-04-16T05:38:57.410Z,101931.13
2023-04-16T05:41:24.578Z,101944.97
2023-04-16T05:43:51.683Z,101932.69
2023-04-16T05:46:18.595Z,101938.09
2023-04-16T05:48:45.954Z,101948.50
2023-04-16T05:51:12.691Z,101951.91
2023-04-16T05:53:39.316Z,101951.88
2023-04-16T05:56:06.744Z,101958.81
2023-04-16T05:58:34.117Z,101949.25
2023-04-16T06:01:01.539Z,101957.06
2023-04-16T06:03:28.510Z,101962.31
2023-04-16T06:05:55.554Z,101974.50
2023-04-16T06:08:23.181Z,101962.31
2023-04-16T06:10:50.413Z,101965.81
2023-04-16T06:13:17.324Z,101974.44
2023-04-16T06:15:44.544Z,101970.09
2023-04-16T06:18:12.283Z,101970.09
2023-04-16T06:20:39.137Z,101977.09
2023-04-16T06:23:07.057Z,101983.31
2023-04-16T06:25:34.462Z,101978.09
2023-04-16T06:28:01.372Z,101985.91
2023-04-16T06:30:28.245Z,101985.91
2023-04-16T06:32:55.261Z,101987.72
2023-04-16T06:35:22.146Z,101990.34
2023-04-16T06:37:49.178Z,101994.63
2023-04-16T06:40:16.814Z,101985.06
2023-04-16T06:42:45.389Z,101998.94
2023-04-16T06:45:13.872Z,101993.84
2023-04-16T06:47:40.877Z,101997.28
2023-04-16T06:50:08.188Z,101997.28
2023-04-16T06:52:35.701Z,102006.00
2023-04-16T06:55:02.619Z,102001.75
2023-04-16T06:57:29.696Z,101995.69
2023-04-16T06:59:56.354Z,101998.41
2023-04-16T07:02:24.337Z,101996.63
2023-04-16T07:04:52.500Z,102000.13
2023-04-16T07:07:19.497Z,102000.94
2023-04-16T07:09:46.753Z,102010.69
2023-04-16T07:12:13.795Z,102006.41
2023-04-16T07:14:41.698Z,102004.72
2023-04-16T07:17:08.702Z,102003.00
2023-04-16T07:19:36.062Z,102007.47
2023-04-16T07:22:03.682Z,102003.25
2023-04-16T07:24:31.208Z,102009.34
2023-04-16T07:26:58.885Z,102013.72
2023-04-16T07:29:27.701Z,102008.50
2023-04-16T07:31:55.053Z,102013.75
2023-04-16T07:34:21.942Z,102006.03
2023-04-16T07:36:48.861Z,102010.56
2023-04-16T07:39:15.592Z,102010.50
2023-04-16T07:41:43.426Z,102016.50
2023-04-16T07:44:10.466Z,102022.63
2023-04-16T07:46:46.273Z,102014.03
2023-04-16T07:49:14.505Z,102022.91
2023-04-16T07:51:42.067Z,102030.09
2023-04-16T07:54:09.918Z,102032.84
2023-04-16T07:56:36.950Z,102040.75
2023-04-16T07:59:14.898Z,102038.25
2023-04-16T08:01:48.878Z,102035.75
2023-04-16T08:04:17.428Z,102044.56
2023-04-16T08:06:44.941Z,102049.81
2023-04-16T08:09:12.426Z,102045.44
2023-04-16T08:11:39.766Z,102053.25
2023-04-16T08:14:07.509Z,102045.53
2023-04-16T08:16:34.420Z,102058.78
2023-04-16T08:19:01.603Z,102061.44
2023-04-16T08:21:28.608Z,102057.81
2023-04-16T08:23:56.015Z,102060.31
2023-04-16T08:26:22.996Z,102057.69
2023-04-16T08:28:50.863Z,102055.97
2023-04-16T08:31:17.694Z,102058.66
2023-04-16T08:33:44.934Z,102065.50
2023-04-16T08:36:11.745Z,102062.13
2023-04-16T08:38:39.212Z,102052.72
2023-04-16T08:41:09.255Z,102069.44
2023-04-16T08:43:39.229Z,102068.78
2023-04-16T08:46:07.341Z,102071.53
2023-04-16T08:48:35.303Z,102076.81
2023-04-16T08:51:02.530Z,102078.53
2023-04-16T08:53:48.551Z,102079.56
2023-04-16T08:56:18.475Z,102078.91
2023-04-16T08:58:48.864Z,102089.34
2023-04-16T09:01:18.008Z,102083.22
2023-04-16T09:03:48.464Z,102091.09
2023-04-16T09:06:16.392Z,102093.69
2023-04-16T09:08:46.884Z,102092.13
2023-04-16T09:11:14.368Z,102087.78
2023-04-16T09:13:41.151Z,102092.16
2023-04-16T09:16:09.478Z,102093.06
2023-04-16T09:18:36.445Z,102089.56
2023-04-16T09:21:04.663Z,102094.84
2023-04-16T09:23:31.724Z,102087.97
2023-04-16T09:25:59.680Z,102089.81
2023-04-16T09:28:59.051Z,102091.53
2023-04-16T09:31:27.591Z,102096.81
2023-04-16T09:34:02.834Z,102099.41
2023-04-16T09:36:32.600Z,102087.13
2023-04-16T09:39:01.186Z,102095.97
2023-04-16T09:41:33.032Z,102103.88
2023-04-16T09:44:04.090Z,102100.34
2023-04-16T09:46:34.432Z,102098.66
2023-04-16T09:49:14.951Z,102095.25
2023-04-16T09:51:49.752Z,102097.03
2023-04-16T09:54:22.961Z,102095.41
2023-04-16T09:56:50.511Z,102091.97
2023-04-16T09:59:24.254Z,102093.75
2023-04-16T10:02:12.277Z,102092.00
2023-04-16T10:04:49.561Z,102090.28
2023-04-16T10:07:18.600Z,102099.03
2023-04-16T10:09:48.438Z,102101.63
2023-04-16T10:12:16.525Z,102105.16
2023-04-16T10:14:44.023Z,102107.78
2023-04-16T10:17:11.924Z,102111.28
2023-04-16T10:19:39.471Z,102097.25
2023-04-16T10:22:06.929Z,102106.03
2023-04-16T10:24:34.981Z,102099.91
2023-04-16T10:27:02.623Z,102101.63
2023-04-16T10:29:31.220Z,102104.28
2023-04-16T10:31:58.820Z,102107.78
2023-04-16T10:34:27.054Z,102107.75
2023-04-16T10:36:54.910Z,102100.78
2023-04-16T10:39:27.811Z,102109.53
2023-04-16T10:42:12.474Z,102104.28
2023-04-16T10:44:43.457Z,102118.28
2023-04-16T10:47:13.486Z,102108.63
2023-04-16T10:49:41.187Z,102099.00
2023-04-16T10:52:13.634Z,102107.78
2023-04-16T10:54:41.349Z,102106.03
2023-04-16T10:57:10.438Z,102106.00
2023-04-16T10:59:39.716Z,102091.16
2023-04-16T11:02:14.391Z,102095.50
2023-04-16T11:04:49.683Z,102099.88
2023-04-16T11:07:21.784Z,102099.84
2023-04-16T11:10:04.246Z,102097.22
2023-04-16T11:12:38.463Z,102104.25
2023-04-16T11:15:10.672Z,102097.25
2023-04-16T11:17:46.702Z,102097.25
2023-04-16T11:20:20.117Z,102097.25
2023-04-16T11:22:53.061Z,102093.75
2023-04-16T11:25:27.222Z,102100.75
2023-04-16T11:27:54.841Z,102099.00
2023-04-16T11:30:34.046Z,102099.00
2023-04-16T11:33:11.667Z,102096.31
2023-04-16T11:35:39.890Z,102098.91
2023-04-16T11:38:07.666Z,102097.09
2023-04-16T11:40:35.906Z,102102.34
2023-04-16T11:43:17.144Z,102098.78
2023-04-16T11:46:10.331Z,102103.97
2023-04-16T11:48:51.051Z,102105.75
2023-04-16T11:51:19.613Z,102102.19
2023-04-16T11:53:54.136Z,102107.44
2023-04-16T11:56:32.168Z,102104.72
2023-04-16T11:59:17.648Z,102102.78
2023-04-16T12:01:49.526Z,102103.53
2023-04-16T12:04:19.675Z,102105.06
2023-04-16T12:07:12.503Z,102100.44
2023-04-16T12:09:43.997Z,102103.03
2023-04-16T12:12:32.050Z,102102.22
2023-04-16T12:15:00.316Z,102099.91
2023-04-16T12:17:27.466Z,102113.31
2023-04-16T12:19:59.637Z,102105.59
2023-04-16T12:22:37.585Z,102113.50
2023-04-16T12:25:07.566Z,102109.06
2023-04-16T12:27:48.008Z,102112.56
2023-04-16T12:30:17.695Z,102107.22
2023-04-16T12:32:47.300Z,102106.41
2023-04-16T12:35:31.983Z,102108.31
2023-04-16T12:37:59.697Z,102105.78
2023-04-16T12:40:27.460Z,102115.50
2023-04-16T12:42:55.134Z,102115.50
2023-04-16T12:45:22.827Z,102114.66
2023-04-16T12:47:50.751Z,102112.03
2023-04-16T12:50:18.731Z,102109.47
2023-04-16T12:52:46.207Z,102115.56
2023-04-16T12:55:14.236Z,102110.25
2023-04-16T12:57:41.463Z,102112.81
2023-04-16T13:00:12.618Z,102114.53
2023-04-16T13:02:40.011Z,102110.97
2023-04-16T13:05:08.872Z,102117.91
2023-04-16T13:07:36.239Z,102120.53
2023-04-16T13:10:02.939Z,102122.28
2023-04-16T13:12:32.629Z,102117.03
2023-04-16T13:14:59.329Z,102114.56
2023-04-16T13:17:26.280Z,102112.91
2023-04-16T13:19:52.970Z,102117.38
2023-04-16T13:22:19.718Z,102117.38
2023-04-16T13:24:47.216Z,102111.28
2023-04-16T13:27:16.051Z,102113.00
2023-04-16T13:29:42.887Z,102114.75
2023-04-16T13:32:09.994Z,102115.59
2023-04-16T13:34:37.689Z,102111.22
2023-04-16T13:37:04.552Z,102111.19
2023-04-16T13:39:31.724Z,102104.16
2023-04-16T13:41:58.376Z,102107.63
2023-04-16T13:44:25.994Z,102111.94
2023-04-16T13:46:53.226Z,102107.50
2023-04-16T13:49:20.283Z,102105.69
2023-04-16T13:51:46.997Z,102110.84
2023-04-16T13:54:13.813Z,102106.50
2023-04-16T13:56:41.027Z,102106.47
2023-04-16T13:59:08.478Z,102098.59
2023-04-16T14:01:35.823Z,102098.59
2023-04-16T14:04:06.798Z,102096.84
2023-04-16T14:06:34.887Z,102102.22
2023-04-16T14:09:02.054Z,102101.41
2023-04-16T14:11:28.922Z,102100.59
2023-04-16T14:13:56.154Z,102104.91
2023-04-16T14:16:23.361Z,102101.38
2023-04-16T14:18:51.895Z,102098.81
2023-04-16T14:21:18.999Z,102102.34
2023-04-16T14:23:45.789Z,102109.38
2023-04-16T14:26:13.144Z,102102.38
2023-04-16T14:28:41.095Z,102100.63
2023-04-16T14:31:08.516Z,102096.19
2023-04-16T14:33:35.443Z,102102.31
2023-04-16T14:36:03.427Z,102097.94
2023-04-16T14:38:31.374Z,102104.03
2023-04-16T14:41:00.202Z,102095.31
2023-04-16T14:43:27.461Z,102096.16
2023-04-16T14:45:54.902Z,102095.22
2023-04-16T14:48:22.174Z,102097.81
2023-04-16T14:50:49.027Z,102092.53
2023-04-16T14:53:16.357Z,102092.53
2023-04-16T14:55:43.345Z,102088.16
2023-04-16T14:58:10.859Z,102093.47
2023-04-16T15:00:38.556Z,102094.38
2023-04-16T15:03:06.176Z,102096.13
2023-04-16T15:05:33.005Z,102094.38
2023-04-16T15:08:00.822Z,102096.13
2023-04-16T15:10:28.412Z,102086.47
2023-04-16T15:12:55.306Z,102095.16
2023-04-16T15:15:22.511Z,102089.44
2023-04-16T15:17:50.997Z,102085.63
2023-04-16T15:20:19.501Z,102075.06
2023-04-16T15:22:46.432Z,102077.53
2023-04-16T15:25:13.289Z,102072.19
2023-04-16T15:27:40.336Z,102085.72
2023-04-16T15:30:08.147Z,102087.03
2023-04-16T15:32:35.255Z,102079.28
2023-04-16T15:35:03.056Z,102081.38
2023-04-16T15:37:30.893Z,102077.91
2023-04-16T15:39:58.294Z,102088.13
2023-04-16T15:42:25.310Z,102075.53
2023-04-16T15:44:52.365Z,102083.72
2023-04-16T15:47:19.490Z,102091.03
2023-04-16T15:49:46.348Z,102085.84
2023-04-16T15:52:13.257Z,102086.88
2023-04-16T15:54:40.860Z,102087.13
2023-04-16T15:57:08.831Z,102094.31
2023-04-16T15:59:35.925Z,102092.94
2023-04-16T16:02:03.004Z,102100.19
2023-04-16T16:04:30.418Z,102100.44
2023-04-16T16:06:57.804Z,102114.66
2023-04-16T16:09:27.943Z,102115.66
2023-04-16T16:11:55.855Z,102110.38
2023-04-16T16:14:22.900Z,102114.75
2023-04-16T16:16:51.281Z,102106.91
2023-04-16T16:19:18.693Z,102113.88
2023-04-16T16:21:45.874Z,102115.63
2023-04-16T16:24:12.826Z,102118.19
2023-04-16T16:26:39.980Z,102114.66
2023-04-16T16:29:07.182Z,102126.00
2023-04-16T16:31:34.229Z,102119.81
2023-04-16T16:34:01.956Z,102126.78
2023-04-16T16:36:29.760Z,102125.91
2023-04-16T16:38:57.021Z,102125.94
2023-04-16T16:41:24.070Z,102128.56
2023-04-16T16:43:51.419Z,102132.88
2023-04-16T16:46:18.570Z,102138.97
2023-04-16T16:48:45.749Z,102138.97
2023-04-16T16:51:12.722Z,102127.59
2023-04-16T16:53:39.427Z,102126.75
2023-04-16T16:56:06.702Z,102130.22
2023-04-16T16:58:33.495Z,102137.19
2023-04-16T17:01:00.699Z,102124.97
2023-04-16T17:03:27.758Z,102143.34
2023-04-16T17:05:54.926Z,102133.72
2023-04-16T17:08:21.752Z,102136.34
2023-04-16T17:10:48.619Z,102130.25
2023-04-16T17:13:21.361Z,102137.22
2023-04-16T17:15:48.501Z,102137.16
2023-04-16T17:18:15.521Z,102141.56
2023-04-16T17:20:42.550Z,102142.41
2023-04-16T17:23:09.864Z,102143.31
2023-04-16T17:25:37.091Z,102128.44
2023-04-16T17:28:04.970Z,102135.47
2023-04-16T17:30:32.324Z,102142.41
2023-04-16T17:32:59.064Z,102137.22
2023-04-16T17:35:26.281Z,102142.47
2023-04-16T17:37:53.180Z,102144.19
2023-04-16T17:40:20.491Z,102139.84
2023-04-16T17:42:48.736Z,102151.19
2023-04-16T17:45:16.187Z,102149.41
2023-04-16T17:47:46.719Z,102158.13
2023-04-16T17:50:13.876Z,102159.88
2023-04-16T17:52:40.713Z,102156.41
2023-04-16T17:55:07.760Z,102148.56
2023-04-16T17:57:34.951Z,102156.41
2023-04-16T18:00:01.779Z,102155.53
2023-04-16T18:02:28.547Z,102170.34
2023-04-16T18:04:56.185Z,102158.97
2023-04-16T18:07:23.453Z,102164.16
2023-04-16T18:09:50.915Z,102163.31
2023-04-16T18:12:17.993Z,102159.84
2023-04-16T18:14:45.328Z,102170.28
2023-04-16T18:17:13.042Z,102165.03
2023-04-16T18:19:44.499Z,102162.38
2023-04-16T18:22:13.232Z,102171.94
2023-04-16T18:24:40.753Z,102175.41
2023-04-16T18:27:07.383Z,102171.00
2023-04-16T18:29:34.665Z,102178.88
2023-04-16T18:32:04.426Z,102182.31
2023-04-16T18:34:32.304Z,102176.22
2023-04-16T18:36:58.940Z,102180.53
2023-04-16T18:39:26.065Z,102174.41
2023-04-16T18:41:53.154Z,102175.25
2023-04-16T18:44:20.774Z,102180.44
2023-04-16T18:46:48.412Z,102186.50
2023-04-16T18:49:15.133Z,102190.03
2023-04-16T18:51:42.352Z,102189.13
2023-04-16T18:54:09.539Z,102185.59
2023-04-16T18:56:36.980Z,102192.56
2023-04-16T18:59:04.132Z,102192.44
2023-04-16T19:01:31.234Z,102191.66
2023-04-16T19:03:58.793Z,102204.63
2023-04-16T19:06:27.845Z,102196.81
2023-04-16T19:08:54.989Z,102201.94
2023-04-16T19:11:21.667Z,102201.97
2023-04-16T19:13:48.476Z,102204.63
2023-04-16T19:16:15.831Z,102208.94
2023-04-16T19:18:42.760Z,102199.31
2023-04-16T19:21:10.952Z,102200.19
2023-04-16T19:23:38.358Z,102207.16
2023-04-16T19:26:05.662Z,102211.47
2023-04-16T19:28:48.446Z,102207.13
2023-04-16T19:31:18.940Z,102217.56
2023-04-16T19:33:46.054Z,102213.28
2023-04-16T19:36:12.884Z,102211.41
2023-04-16T19:38:39.665Z,102214.91
2023-04-16T19:41:06.467Z,102214.84
2023-04-16T19:43:33.641Z,102221.84
2023-04-16T19:46:01.174Z,102221.84
2023-04-16T19:48:28.725Z,102223.59
2023-04-16T19:50:55.697Z,102216.59
2023-04-16T19:53:24.214Z,102222.69
2023-04-16T19:55:51.827Z,102220.94
2023-04-16T19:58:18.697Z,102225.34
2023-04-16T20:00:47.209Z,102223.59
2023-04-16T20:03:14.261Z,102232.28
2023-04-16T20:05:41.302Z,102229.66
2023-04-16T20:08:08.695Z,102234.03
2023-04-16T20:10:37.949Z,102225.34
2023-04-16T20:13:06.609Z,102226.22
2023-04-16T20:15:33.241Z,102231.47
2023-04-16T20:18:00.433Z,102228.84
2023-04-16T20:20:27.651Z,102230.56
2023-04-16T20:22:54.670Z,102234.91
2023-04-16T20:25:22.529Z,102230.56
2023-04-16T20:27:49.199Z,102240.97
2023-04-16T20:30:16.385Z,102230.44
2023-04-16T20:32:43.331Z,102233.97
2023-04-16T20:35:11.698Z,102236.59
2023-04-16T20:37:42.237Z,102232.22
2023-04-16T20:40:14.988Z,102239.06
2023-04-16T20:42:46.123Z,102239.00
2023-04-16T20:45:14.402Z,102235.41
2023-04-16T20:47:43.389Z,102226.66
2023-04-16T20:50:11.306Z,102234.41
2023-04-16T20:52:38.666Z,102229.16
2023-04-16T20:55:08.047Z,102229.97
2023-04-16T20:57:35.318Z,102234.25
2023-04-16T21:00:05.759Z,102231.63
2023-04-16T21:02:33.298Z,102233.34
2023-04-16T21:05:00.876Z,102236.03
2023-04-16T21:07:27.806Z,102235.09
2023-04-16T21:09:54.844Z,102235.03
2023-04-16T21:12:23.308Z,102236.75
2023-04-16T21:14:50.504Z,102239.28
2023-04-16T21:17:17.322Z,102233.16
2023-04-16T21:19:44.422Z,102228.88
2023-04-16T21:22:11.338Z,102237.44
2023-04-16T21:24:38.210Z,102242.72
2023-04-16T21:27:05.491Z,102244.41
2023-04-16T21:29:32.727Z,102235.69
2023-04-16T21:31:59.844Z,102250.38
2023-04-16T21:34:26.750Z,102245.19
2023-04-16T21:36:53.787Z,102244.28
2023-04-16T21:39:21.781Z,102234.75
2023-04-16T21:41:49.141Z,102246.88
2023-04-16T21:44:16.287Z,102240.66
2023-04-16T21:46:43.173Z,102241.66
2023-04-16T21:49:10.654Z,102243.31
2023-04-16T21:51:40.038Z,102245.03
2023-04-16T21:54:07.394Z,102238.00
2023-04-16T21:56:34.422Z,102238.84
2023-04-16T21:59:01.748Z,102243.19
2023-04-16T22:01:28.642Z,102244.03
2023-04-16T22:03:56.130Z,102238.78
2023-04-16T22:06:23.665Z,102239.63
2023-04-16T22:08:50.888Z,102230.03
2023-04-16T22:11:17.795Z,102236.13
2023-04-16T22:13:46.405Z,102238.75
2023-04-16T22:16:13.555Z,102234.38
2023-04-16T22:18:41.257Z,102231.72
2023-04-16T22:21:08.380Z,102231.66
2023-04-16T22:23:35.351Z,102226.44
2023-04-16T22:26:02.971Z,102236.00
2023-04-16T22:28:29.927Z,102233.41
2023-04-16T22:30:56.967Z,102232.47
2023-04-16T22:33:23.778Z,102233.31
2023-04-16T22:35:50.514Z,102230.75
2023-04-16T22:38:17.364Z,102231.66
2023-04-16T22:40:47.267Z,102232.56
2023-04-16T22:43:14.023Z,102238.69
2023-04-16T22:45:41.147Z,102229.09
2023-04-16T22:48:09.660Z,102230.81
2023-04-16T22:50:36.480Z,102230.84
2023-04-16T22:53:03.906Z,102239.59
2023-04-16T22:55:30.635Z,102223.84
2023-04-16T22:57:57.873Z,102225.56
2023-04-16T23:00:25.012Z,102233.44
2023-04-16T23:02:52.415Z,102223.00
2023-04-16T23:05:19.844Z,102218.69
2023-04-16T23:07:46.793Z,102221.34
2023-04-16T23:10:13.681Z,102229.09
2023-04-16T23:12:41.189Z,102227.34
2023-04-16T23:15:08.819Z,102225.53
2023-04-16T23:17:36.021Z,102227.34
2023-04-16T23:20:07.370Z,102232.59
2023-04-16T23:22:34.105Z,102227.47
2023-04-16T23:25:00.998Z,102225.59
2023-04-16T23:27:28.092Z,102230.84
2023-04-16T23:29:55.057Z,102233.44
2023-04-16T23:32:22.195Z,102228.19
2023-04-16T23:34:49.465Z,102229.91
2023-04-16T23:37:16.552Z,102226.44
2023-04-16T23:39:43.668Z,102225.56
2023-04-16T23:42:11.295Z,102229.09
2023-04-16T23:44:38.728Z,102229.09
2023-04-16T23:47:06.007Z,102227.34
2023-04-16T23:49:33.207Z,102236.94
2023-04-16T23:52:00.260Z,102226.53
2023-04-16T23:54:27.104Z,102230.84
2023-04-16T23:56:53.868Z,102227.38
2023-04-16T23:59:20.838Z,102221.31
